Time;durP1;ratioP1;P1;durP2;ratioP2;P2;SDS_P1;SDS_P2;PMS_P1;PMS_P2;Temp;Humidity;BMP_temperature;BMP_pressure;BME280_temperature;BME280_humidity;BME280_pressure;Samples;Min_cycle;Max_cycle;Signal;HPM_P1;HPM_P2
2023/10/04 00:01:46;;;;;;;;;;;;;;;9.73;100.00;100532.13;4975125;28;832;-61
2023/10/04 00:04:12;;;;;;;;;;;;;;;9.73;100.00;100526.63;4974914;28;1947;-62
2023/10/04 00:06:41;;;;;;;;;;;;;;;9.72;100.00;100527.78;4974697;28;864;-62
2023/10/04 00:09:09;;;;;;;;;;;;;;;9.73;100.00;100526.63;4974860;28;970;-62
2023/10/04 00:11:36;;;;;;;;;;;;;;;9.74;100.00;100524.66;4974782;28;880;-62
2023/10/04 00:14:03;;;;;;;;;;;;;;;9.74;100.00;100521.88;4974943;28;1205;-61
2023/10/04 00:16:32;;;;;;;;;;;;;;;9.73;100.00;100517.53;4974794;28;904;-62
2023/10/04 00:18:59;;;;;;;;;;;;;;;9.73;100.00;100515.56;4974987;28;919;-62
2023/10/04 00:21:26;;;;;;;;;;;;;;;9.74;100.00;100514.38;4974842;28;1194;-62
2023/10/04 00:23:53;;;;;;;;;;;;;;;9.75;100.00;100512.41;4974841;28;1914;-61
2023/10/04 00:26:20;;;;;;;;;;;;;;;9.78;100.00;100506.16;4974647;28;833;-62
2023/10/04 00:28:46;;;;;;;;;;;;;;;9.77;100.00;100504.56;4974663;28;1281;-61
2023/10/04 00:31:13;;;;;;;;;;;;;;;9.72;100.00;100513.19;4974742;28;773;-62
2023/10/04 00:33:40;;;;;;;;;;;;;;;9.68;100.00;100501.31;4974495;28;1280;-61
2023/10/04 00:36:08;;;;;;;;;;;;;;;9.71;100.00;100506.09;4974675;28;1240;-61
2023/10/04 00:38:35;;;;;;;;;;;;;;;9.69;100.00;100509.22;4974419;28;915;-61
2023/10/04 00:41:07;;;;;;;;;;;;;;;9.66;100.00;100507.22;4974475;28;1011;-61
2023/10/04 00:43:45;;;;;;;;;;;;;;;9.63;100.00;100502.47;4974148;28;1899;-62
2023/10/04 00:46:12;;;;;;;;;;;;;;;9.58;100.00;100503.59;4956909;28;1162;-62
2023/10/04 00:48:39;;;;;;;;;;;;;;;9.62;100.00;100498.09;4974139;28;817;-61
2023/10/04 00:51:06;;;;;;;;;;;;;;;9.68;100.00;100499.34;4974162;28;829;-62
2023/10/04 00:53:33;;;;;;;;;;;;;;;9.66;100.00;100498.94;4973950;28;928;-62
2023/10/04 00:56:00;;;;;;;;;;;;;;;9.66;100.00;100498.13;4973845;28;841;-62
2023/10/04 00:58:28;;;;;;;;;;;;;;;9.59;100.00;100502.41;4973931;28;825;-62
2023/10/04 01:00:55;;;;;;;;;;;;;;;9.53;100.00;100500.38;4973864;28;841;-62
2023/10/04 01:03:28;;;;;;;;;;;;;;;9.51;100.00;100499.97;4973775;28;1887;-62
2023/10/04 01:05:54;;;;;;;;;;;;;;;9.51;100.00;100503.50;4973859;28;947;-62
2023/10/04 01:08:22;;;;;;;;;;;;;;;9.45;100.00;100501.47;4973819;28;857;-61
2023/10/04 01:10:50;;;;;;;;;;;;;;;9.43;100.00;100501.03;4973786;28;833;-61
2023/10/04 01:13:26;;;;;;;;;;;;;;;9.39;100.00;100495.50;4973849;28;964;-62
2023/10/04 01:15:55;;;;;;;;;;;;;;;9.41;100.00;100487.66;4973509;28;1455;-62
2023/10/04 01:18:22;;;;;;;;;;;;;;;9.43;100.00;100492.78;4973031;28;891;-62
2023/10/04 01:20:49;;;;;;;;;;;;;;;9.39;100.00;100487.22;4956325;28;1174;-62
2023/10/04 01:23:16;;;;;;;;;;;;;;;9.42;100.00;100480.94;4973392;28;1899;-62
2023/10/04 01:25:48;;;;;;;;;;;;;;;9.44;100.00;100489.66;4973493;28;849;-61
2023/10/04 01:28:28;;;;;;;;;;;;;;;9.43;100.00;100482.56;4956051;28;924;-62
2023/10/04 01:30:56;;;;;;;;;;;;;;;9.41;100.00;100487.66;4973446;28;829;-62
2023/10/04 01:33:23;;;;;;;;;;;;;;;9.42;100.00;100474.66;4973352;28;852;-62
2023/10/04 01:35:53;;;;;;;;;;;;;;;9.41;100.00;100482.13;4973212;28;849;-61
2023/10/04 01:38:25;;;;;;;;;;;;;;;9.42;100.00;100477.41;4973301;28;833;-62
2023/10/04 01:40:52;;;;;;;;;;;;;;;9.40;100.00;100477.78;4973235;28;1255;-62
2023/10/04 01:43:19;;;;;;;;;;;;;;;9.39;100.00;100473.44;4973293;28;1906;-61
2023/10/04 01:45:52;;;;;;;;;;;;;;;9.34;100.00;100474.53;4973257;28;868;-61
2023/10/04 01:48:19;;;;;;;;;;;;;;;9.35;100.00;100472.59;4973262;28;860;-62
2023/10/04 01:50:52;;;;;;;;;;;;;;;9.33;100.00;100464.69;4973106;28;873;-61
2023/10/04 01:53:24;;;;;;;;;;;;;;;9.28;100.00;100478.84;4973185;28;840;-61
2023/10/04 01:55:51;;;;;;;;;;;;;;;9.24;100.00;100471.69;4973079;28;820;-61
2023/10/04 01:58:23;;;;;;;;;;;;;;;9.22;100.00;100474.84;4973054;28;865;-62
2023/10/04 02:00:53;;;;;;;;;;;;;;;9.23;100.00;100470.88;4973310;28;931;-62
2023/10/04 02:03:19;;;;;;;;;;;;;;;9.25;100.00;100471.31;4972906;28;1890;-61
2023/10/04 02:05:45;;;;;;;;;;;;;;;9.21;100.00;100470.47;4973153;28;857;-61
2023/10/04 02:08:12;;;;;;;;;;;;;;;9.21;100.00;100464.94;4973129;28;832;-61
2023/10/04 02:10:44;;;;;;;;;;;;;;;9.18;100.00;100469.25;4973222;28;899;-61
2023/10/04 02:13:14;;;;;;;;;;;;;;;9.13;100.00;100466.84;4972781;28;880;-61
2023/10/04 02:15:42;;;;;;;;;;;;;;;9.11;100.00;100466.44;4972691;28;1404;-62
2023/10/04 02:18:08;;;;;;;;;;;;;;;9.12;100.00;100459.75;4972852;28;886;-62
2023/10/04 02:20:35;;;;;;;;;;;;;;;9.14;100.00;100464.88;4972910;28;837;-62
2023/10/04 02:23:04;;;;;;;;;;;;;;;9.17;100.00;100467.69;4972589;28;1985;-62
2023/10/04 02:25:30;;;;;;;;;;;;;;;9.22;100.00;100471.25;4972552;28;828;-62
2023/10/04 02:28:09;;;;;;;;;;;;;;;9.20;100.00;100461.41;4973033;28;894;-62
2023/10/04 02:30:36;;;;;;;;;;;;;;;9.18;100.00;100458.22;4975413;28;916;-62
2023/10/04 02:33:08;;;;;;;;;;;;;;;9.14;100.00;100457.41;4976728;28;904;-62
2023/10/04 02:35:43;;;;;;;;;;;;;;;9.12;100.00;100450.69;4976514;28;981;-63
2023/10/04 02:38:33;;;;;;;;;;;;;;;9.10;100.00;100461.28;4976531;28;915;-62
2023/10/04 02:40:56;;;;;;;;;;;;;;;9.07;100.00;100451.81;4975717;28;1512;-62
2023/10/04 02:43:26;;;;;;;;;;;;;;;9.07;100.00;100456.50;4976332;28;2236;-61
2023/10/04 02:45:54;;;;;;;;;;;;;;;9.05;100.00;100454.16;4976282;28;911;-62
2023/10/04 02:48:20;;;;;;;;;;;;;;;9.09;100.00;100448.66;4976586;28;847;-62
2023/10/04 02:50:48;;;;;;;;;;;;;;;9.08;100.00;100450.63;4976386;28;809;-62
2023/10/04 02:53:20;;;;;;;;;;;;;;;9.04;100.00;100452.53;4976089;28;817;-61
2023/10/04 02:55:47;;;;;;;;;;;;;;;9.02;100.00;100454.09;4976404;28;856;-61
2023/10/04 02:58:16;;;;;;;;;;;;;;;9.05;100.00;100456.13;4976342;28;1212;-61
2023/10/04 03:00:46;;;;;;;;;;;;;;;9.05;100.00;100456.13;4976101;28;825;-61
2023/10/04 03:03:13;;;;;;;;;;;;;;;9.05;100.00;100453.38;4976001;28;1894;-62
2023/10/04 03:05:40;;;;;;;;;;;;;;;9.02;100.00;100443.06;4976078;28;845;-63
2023/10/04 03:08:08;;;;;;;;;;;;;;;9.00;100.00;100448.94;4975965;28;910;-62
2023/10/04 03:10:40;;;;;;;;;;;;;;;8.95;100.00;100452.84;4975992;28;857;-62
2023/10/04 03:13:16;;;;;;;;;;;;;;;8.90;100.00;100453.19;4976021;28;919;-62
2023/10/04 03:15:46;;;;;;;;;;;;;;;8.84;100.00;100448.38;4975693;28;1409;-61
2023/10/04 03:18:19;;;;;;;;;;;;;;;8.80;100.00;100440.06;4975891;28;797;-61
2023/10/04 03:20:54;;;;;;;;;;;;;;;8.75;100.00;100446.69;4975777;28;911;-61
2023/10/04 03:23:21;;;;;;;;;;;;;;;8.71;100.00;100439.56;4975603;28;1910;-62
2023/10/04 03:25:48;;;;;;;;;;;;;;;8.69;100.00;100442.69;4975642;28;833;-61
2023/10/04 03:28:15;;;;;;;;;;;;;;;8.70;100.00;100443.47;4975663;28;973;-61
2023/10/04 03:30:45;;;;;;;;;;;;;;;8.69;100.00;100442.69;4975529;28;832;-62
2023/10/04 03:33:12;;;;;;;;;;;;;;;8.69;100.00;100445.44;4975598;28;825;-61
2023/10/04 03:35:39;;;;;;;;;;;;;;;8.70;100.00;100441.50;4975453;28;822;-61
2023/10/04 03:38:06;;;;;;;;;;;;;;;8.69;100.00;100441.88;4958133;28;1360;-62
2023/10/04 03:40:36;;;;;;;;;;;;;;;8.70;100.00;100446.22;4974848;28;981;-61
2023/10/04 03:43:05;;;;;;;;;;;;;;;8.72;100.00;100455.69;4975487;28;1957;-61
2023/10/04 03:45:40;;;;;;;;;;;;;;;8.70;100.00;100447.00;4975606;28;919;-61
2023/10/04 03:48:15;;;;;;;;;;;;;;;8.73;100.00;100453.75;4975235;28;883;-62
2023/10/04 03:50:50;;;;;;;;;;;;;;;8.70;100.00;100458.03;4975236;28;810;-63
2023/10/04 03:53:20;;;;;;;;;;;;;;;8.69;100.00;100456.47;4975065;28;821;-63
2023/10/04 03:55:48;;;;;;;;;;;;;;;8.69;100.00;100453.69;4975126;28;865;-62
2023/10/04 03:58:15;;;;;;;;;;;;;;;8.72;100.00;100458.44;4957824;28;1412;-63
2023/10/04 04:00:42;;;;;;;;;;;;;;;8.74;100.00;100458.88;4974992;28;912;-63
2023/10/04 04:03:10;;;;;;;;;;;;;;;8.74;100.00;100449.81;4974924;28;1890;-63
2023/10/04 04:05:41;;;;;;;;;;;;;;;8.77;100.00;100455.38;4975132;28;864;-63
2023/10/04 04:08:09;;;;;;;;;;;;;;;8.77;100.00;100460.91;4975084;28;829;-63
2023/10/04 04:10:38;;;;;;;;;;;;;;;8.78;100.00;100448.69;4974797;28;825;-63
2023/10/04 04:13:05;;;;;;;;;;;;;;;8.76;100.00;100448.28;4975085;28;928;-63
2023/10/04 04:15:35;;;;;;;;;;;;;;;8.77;100.00;100452.63;4974597;28;1299;-63
2023/10/04 04:18:10;;;;;;;;;;;;;;;8.76;100.00;100455.75;4957553;28;880;-63
2023/10/04 04:20:36;;;;;;;;;;;;;;;8.77;100.00;100449.09;4974749;28;943;-63
2023/10/04 04:23:06;;;;;;;;;;;;;;;8.81;100.00;100440.84;4974762;28;1914;-63
2023/10/04 04:25:33;;;;;;;;;;;;;;;8.79;100.00;100439.28;4974504;28;904;-63
2023/10/04 04:28:02;;;;;;;;;;;;;;;8.83;100.00;100449.53;4974625;28;857;-63
2023/10/04 04:30:34;;;;;;;;;;;;;;;8.86;100.00;100438.56;4974489;28;876;-63
2023/10/04 04:33:04;;;;;;;;;;;;;;;8.91;100.00;100445.69;4974509;28;903;-63
2023/10/04 04:35:40;;;;;;;;;;;;;;;8.96;100.00;100446.16;4974404;28;1248;-63
2023/10/04 04:38:21;;;;;;;;;;;;;;;9.05;100.00;100445.88;4974140;28;951;-63
2023/10/04 04:40:49;;;;;;;;;;;;;;;9.08;100.00;100447.09;4974539;28;876;-63
2023/10/04 04:45:52;;;;;;;;;;;;;;;9.21;100.00;100456.69;4974300;28;687;-64
2023/10/04 04:48:23;;;;;;;;;;;;;;;9.33;100.00;100458.41;4974087;28;881;-63
2023/10/04 04:50:52;;;;;;;;;;;;;;;9.46;100.00;100456.94;4974124;28;880;-63
2023/10/04 04:53:21;;;;;;;;;;;;;;;9.58;100.00;100455.88;4973203;28;845;-64
2023/10/04 04:55:49;;;;;;;;;;;;;;;9.74;100.00;100455.63;4974252;28;860;-63
2023/10/04 04:58:18;;;;;;;;;;;;;;;9.95;100.00;100453.03;4974098;28;836;-64
2023/10/04 05:00:47;;;;;;;;;;;;;;;10.12;100.00;100459.09;4974300;28;852;-64
2023/10/04 05:03:13;;;;;;;;;;;;;;;10.28;100.00;100462.34;4973875;28;1902;-64
2023/10/04 05:05:40;;;;;;;;;;;;;;;10.44;100.00;100464.09;4973886;28;1040;-63
2023/10/04 05:08:07;;;;;;;;;;;;;;;10.58;100.00;100466.91;4973950;28;900;-64
2023/10/04 05:10:46;;;;;;;;;;;;;;;10.73;100.00;100460.31;4973745;28;944;-64
2023/10/04 05:13:14;;;;;;;;;;;;;;;10.86;100.00;100466.28;4974004;28;992;-64
2023/10/04 05:15:42;;;;;;;;;;;;;;;10.96;100.00;100461.97;4973568;28;1455;-64
2023/10/04 05:18:17;;;;;;;;;;;;;;;11.05;100.00;100467.91;4973601;28;884;-65
2023/10/04 05:20:45;;;;;;;;;;;;;;;11.15;100.00;100464.41;4973626;28;1000;-64
2023/10/04 05:23:14;;;;;;;;;;;;;;;11.25;100.00;100465.63;4973466;28;1946;-64
2023/10/04 05:25:41;;;;;;;;;;;;;;;11.36;100.00;100469.22;4973491;28;821;-65
2023/10/04 05:28:12;;;;;;;;;;;;;;;11.46;100.00;100467.66;4973769;28;889;-64
2023/10/04 05:30:39;;;;;;;;;;;;;;;11.61;100.00;100469.28;4956097;28;1313;-64
2023/10/04 05:33:08;;;;;;;;;;;;;;;11.79;100.00;100468.50;4973319;28;838;-64
2023/10/04 05:35:35;;;;;;;;;;;;;;;11.91;100.00;100476.47;4973439;28;896;-64
2023/10/04 05:38:06;;;;;;;;;;;;;;;11.96;100.00;100478.81;4973277;28;832;-64
2023/10/04 05:40:35;;;;;;;;;;;;;;;12.00;100.00;100490.69;4973282;28;844;-65
2023/10/04 05:43:05;;;;;;;;;;;;;;;12.08;100.00;100483.19;4973577;28;1960;-64
2023/10/04 05:45:31;;;;;;;;;;;;;;;12.28;100.00;100477.22;4973591;28;890;-64
2023/10/04 05:47:59;;;;;;;;;;;;;;;12.39;100.00;100481.56;4973323;28;1251;-64
2023/10/04 05:50:26;;;;;;;;;;;;;;;12.45;100.00;100491.06;4973384;28;1221;-65
2023/10/04 05:52:53;;;;;;;;;;;;;;;12.41;100.00;100487.50;4973639;28;868;-64
2023/10/04 05:55:20;;;;;;;;;;;;;;;12.48;100.00;100489.47;4973349;28;849;-64
2023/10/04 05:57:48;;;;;;;;;;;;;;;12.58;100.00;100487.88;4973343;28;860;-64
2023/10/04 06:02:49;;;;;;;;;;;;;;;12.86;100.00;100479.47;4972885;28;1887;-64
2023/10/04 06:05:19;;;;;;;;;;;;;;;13.05;100.00;100483.75;4972977;28;867;-64
2023/10/04 06:07:46;;;;;;;;;;;;;;;13.16;100.00;100486.47;4972874;28;884;-64
2023/10/04 06:10:14;;;;;;;;;;;;;;;13.33;100.00;100492.38;4972944;28;832;-65
2023/10/04 06:12:42;;;;;;;;;;;;;;;13.53;100.00;100485.13;4972967;28;879;-64
2023/10/04 06:15:13;;;;;;;;;;;;;;;13.79;100.00;100494.09;4972819;28;1231;-64
2023/10/04 06:17:42;;;;;;;;;;;;;;;14.07;100.00;100493.09;4972832;28;860;-64
2023/10/04 06:22:51;;;;;;;;;;;;;;;14.58;100.00;100491.44;4972703;28;1973;-65
2023/10/04 06:25:19;;;;;;;;;;;;;;;14.87;100.00;100491.13;4972863;28;1052;-66
2023/10/04 06:27:44;;;;;;;;;;;;;;;15.10;100.00;100493.25;4972692;28;825;-65
2023/10/04 06:30:12;;;;;;;;;;;;;;;15.25;100.00;100485.50;4972794;28;852;-64
2023/10/04 06:32:38;;;;;;;;;;;;;;;15.28;100.00;100495.81;4972721;28;876;-65
2023/10/04 06:35:05;;;;;;;;;;;;;;;15.35;100.00;100492.16;4972692;28;957;-65
2023/10/04 06:37:31;;;;;;;;;;;;;;;15.48;100.00;100491.16;4972737;28;829;-64
2023/10/04 06:39:57;;;;;;;;;;;;;;;15.68;100.00;100494.06;4972634;28;961;-65
2023/10/04 07:13:27;;;;;;;;;;;;;;;19.54;93.24;100491.41;5615474;23;1539;-58
2023/10/04 07:15:55;;;;;;;;;;;;;;;20.04;82.98;100489.03;4954361;28;860;-57
2023/10/04 07:18:22;;;;;;;;;;;;;;;20.76;78.69;100493.00;4956781;29;841;-58
2023/10/04 07:20:57;;;;;;;;;;;;;;;21.55;73.20;100489.28;4956529;29;903;-57
2023/10/04 07:23:24;;;;;;;;;;;;;;;22.38;69.19;100481.88;4956035;29;1968;-57
2023/10/04 07:25:51;;;;;;;;;;;;;;;22.85;66.54;100482.63;4956409;29;872;-58
2023/10/04 07:28:18;;;;;;;;;;;;;;;22.99;62.40;100479.16;4956260;29;841;-57
2023/10/04 07:30:45;;;;;;;;;;;;;;;23.32;59.59;100484.16;4956300;29;885;-58
2023/10/04 07:33:12;;;;;;;;;;;;;;;23.40;55.17;100481.75;4956595;29;840;-58
2023/10/04 07:35:39;;;;;;;;;;;;;;;23.54;53.23;100478.28;4956174;29;840;-58
2023/10/04 07:38:06;;;;;;;;;;;;;;;23.84;52.41;100473.59;4956128;29;836;-58
2023/10/04 07:41:05;;;;;;;;;;;;;;;24.35;50.53;100476.75;4938996;29;1318;-58
2023/10/04 07:43:33;;;;;;;;;;;;;;;24.46;48.83;100474.91;4955986;29;1890;-58
2023/10/04 07:46:00;;;;;;;;;;;;;;;24.25;48.26;100473.19;4956119;29;836;-58
2023/10/04 07:48:27;;;;;;;;;;;;;;;24.54;47.06;100471.78;4938769;29;1422;-57
2023/10/04 07:50:54;;;;;;;;;;;;;;;24.98;46.13;100477.47;4955919;29;872;-58
2023/10/04 07:53:21;;;;;;;;;;;;;;;25.21;45.21;100469.41;4956010;29;837;-58
2023/10/04 07:55:50;;;;;;;;;;;;;;;25.36;43.57;100473.00;4955878;29;868;-58
2023/10/04 07:58:17;;;;;;;;;;;;;;;25.06;40.66;100463.72;4955911;29;885;-58
2023/10/04 08:00:54;;;;;;;;;;;;;;;24.42;39.85;100454.53;4955766;29;825;-58
2023/10/04 08:03:22;;;;;;;;;;;;;;;24.08;40.66;100467.19;4956064;29;1882;-58
2023/10/04 08:05:50;;;;;;;;;;;;;;;23.76;41.13;100454.69;4955901;29;913;-58
2023/10/04 08:08:17;;;;;;;;;;;;;;;23.72;41.50;100463.28;4955983;29;829;-58
2023/10/04 08:10:44;;;;;;;;;;;;;;;23.92;40.96;100459.13;4955702;29;821;-58
2023/10/04 08:13:10;;;;;;;;;;;;;;;23.83;41.22;100449.47;4955735;29;1372;-58
2023/10/04 08:15:37;;;;;;;;;;;;;;;23.69;40.81;100458.63;4955719;29;883;-58
2023/10/04 08:18:04;;;;;;;;;;;;;;;23.87;40.94;100454.16;4955691;29;1244;-57
2023/10/04 08:20:32;;;;;;;;;;;;;;;24.00;40.49;100457.50;4955489;29;848;-58
2023/10/04 08:23:05;;;;;;;;;;;;;;;23.99;40.74;100455.97;4955517;29;1906;-58
2023/10/04 08:25:35;;;;;;;;;;;;;;;23.98;40.34;100457.22;4955478;29;856;-57
2023/10/04 08:28:03;;;;;;;;;;;;;;;23.94;39.84;100456.59;4955121;28;888;-57
2023/10/04 08:30:30;;;;;;;;;;;;;;;24.15;40.13;100452.69;4955254;29;818;-57
2023/10/04 08:33:05;;;;;;;;;;;;;;;24.18;39.64;100448.94;4955199;29;941;-57
2023/10/04 08:35:34;;;;;;;;;;;;;;;24.18;39.35;100451.75;4955198;29;1163;-57
2023/10/04 08:38:05;;;;;;;;;;;;;;;24.09;39.22;100442.56;4955346;29;837;-57
2023/10/04 08:40:36;;;;;;;;;;;;;;;24.12;39.16;100447.25;4955375;29;825;-58
2023/10/04 08:43:04;;;;;;;;;;;;;;;24.31;39.07;100448.69;4954755;29;1911;-57
2023/10/04 08:45:33;;;;;;;;;;;;;;;24.44;38.94;100452.03;4937717;29;1191;-57
2023/10/04 08:48:01;;;;;;;;;;;;;;;24.57;38.90;100454.59;4937591;29;1851;-58
2023/10/04 08:50:28;;;;;;;;;;;;;;;24.38;38.41;100447.53;4954910;29;872;-57
2023/10/04 08:53:03;;;;;;;;;;;;;;;24.31;39.46;100436.59;4954842;29;829;-58
2023/10/04 08:55:41;;;;;;;;;;;;;;;24.27;38.37;100444.47;4954974;29;856;-58
2023/10/04 08:58:09;;;;;;;;;;;;;;;23.99;38.85;100447.50;4954794;29;899;-58
2023/10/04 09:00:38;;;;;;;;;;;;;;;23.89;39.10;100443.94;4954802;29;836;-58
2023/10/04 09:03:07;;;;;;;;;;;;;;;23.88;39.16;100435.97;4954430;29;1882;-58
2023/10/04 09:05:34;;;;;;;;;;;;;;;23.97;39.18;100436.69;4954625;29;834;-58
2023/10/04 09:08:04;;;;;;;;;;;;;;;24.07;38.54;100439.44;4954753;29;816;-58
2023/10/04 09:10:33;;;;;;;;;;;;;;;24.00;38.55;100432.09;4954580;29;840;-58
2023/10/04 09:13:04;;;;;;;;;;;;;;;24.08;38.49;100430.50;4954656;29;1224;-58
2023/10/04 09:15:33;;;;;;;;;;;;;;;24.04;38.13;100427.84;4954529;29;813;-58
2023/10/04 09:18:02;;;;;;;;;;;;;;;24.01;38.64;100428.81;4954433;29;929;-58
2023/10/04 09:20:32;;;;;;;;;;;;;;;24.12;38.69;100424.66;4954447;29;844;-57
2023/10/04 09:23:00;;;;;;;;;;;;;;;24.31;38.68;100419.66;4954097;29;1914;-58
2023/10/04 09:25:39;;;;;;;;;;;;;;;24.29;38.17;100417.31;4954159;29;852;-58
2023/10/04 09:28:09;;;;;;;;;;;;;;;24.28;37.87;100412.91;4954295;29;864;-58
2023/10/04 09:30:42;;;;;;;;;;;;;;;24.28;37.30;100403.66;4954091;29;856;-58
2023/10/04 09:33:28;;;;;;;;;;;;;;;23.98;37.61;100409.22;4954281;29;936;-58
2023/10/04 09:35:55;;;;;;;;;;;;;;;24.08;37.26;100404.31;4954140;29;805;-58
2023/10/04 09:38:25;;;;;;;;;;;;;;;24.09;37.14;100401.00;4953726;28;856;-58
2023/10/04 09:40:51;;;;;;;;;;;;;;;24.23;37.30;100411.53;4954007;29;861;-58
2023/10/04 09:43:31;;;;;;;;;;;;;;;24.56;36.92;100401.41;4954123;29;1940;-58
2023/10/04 09:45:58;;;;;;;;;;;;;;;24.94;36.41;100411.84;4954045;29;906;-59
2023/10/04 09:48:31;;;;;;;;;;;;;;;25.36;35.81;100393.00;4936535;29;1318;-58
2023/10/04 09:51:04;;;;;;;;;;;;;;;25.65;34.93;100392.16;4936876;29;1384;-58
2023/10/04 09:53:31;;;;;;;;;;;;;;;25.64;34.63;100385.69;4953828;29;969;-58
2023/10/04 09:56:05;;;;;;;;;;;;;;;25.56;34.69;100387.41;4954036;29;833;-58
2023/10/04 09:58:33;;;;;;;;;;;;;;;25.65;34.45;100392.16;4953761;29;1254;-58
2023/10/04 10:01:03;;;;;;;;;;;;;;;25.87;33.87;100383.94;4954003;29;865;-58
2023/10/04 10:03:36;;;;;;;;;;;;;;;25.93;33.89;100384.06;4953795;29;1954;-58
2023/10/04 10:06:03;;;;;;;;;;;;;;;25.75;34.24;100384.28;4953729;29;916;-58
2023/10/04 10:08:36;;;;;;;;;;;;;;;25.54;34.44;100377.81;4936693;29;1329;-58
2023/10/04 10:11:04;;;;;;;;;;;;;;;25.63;34.22;100383.38;4936428;29;1264;-58
2023/10/04 10:13:32;;;;;;;;;;;;;;;25.82;34.30;100379.00;4953631;29;1226;-58
2023/10/04 10:16:00;;;;;;;;;;;;;;;25.82;34.05;100378.22;4953649;29;1601;-58
2023/10/04 10:18:27;;;;;;;;;;;;;;;25.82;34.16;100370.50;4953596;29;1473;-58
2023/10/04 10:20:55;;;;;;;;;;;;;;;26.04;33.81;100374.91;4953683;29;1285;-58
2023/10/04 10:23:22;;;;;;;;;;;;;;;26.47;33.04;100370.22;4953666;29;1907;-58
2023/10/04 10:26:16;;;;;;;;;;;;;;;26.63;32.90;100360.38;4954030;29;833;-58
2023/10/04 10:28:45;;;;;;;;;;;;;;;26.65;32.40;100365.53;4953518;29;936;-58
2023/10/04 10:31:20;;;;;;;;;;;;;;;26.72;32.54;100361.50;4953543;29;884;-59
2023/10/04 10:33:48;;;;;;;;;;;;;;;26.36;33.04;100364.47;4953533;29;813;-58
2023/10/04 10:36:22;;;;;;;;;;;;;;;26.45;33.12;100360.69;4953410;29;1016;-58
2023/10/04 10:38:50;;;;;;;;;;;;;;;26.93;32.60;100365.00;4953412;29;837;-58
2023/10/04 10:41:30;;;;;;;;;;;;;;;27.09;31.56;100353.00;4953293;29;853;-58
2023/10/04 10:44:17;;;;;;;;;;;;;;;27.04;32.06;100363.03;4953377;29;1890;-58
2023/10/04 10:46:54;;;;;;;;;;;;;;;27.10;31.64;100351.75;4953645;29;849;-58
2023/10/04 10:50:20;;;;;;;;;;;;;;;27.22;31.05;100349.78;4953324;28;857;-58
2023/10/04 10:52:39;;;;;;;;;;;;;;;27.63;31.11;100344.59;4951574;29;1157;-58
2023/10/04 10:57:59;;;;;;;;;;;;;;;27.89;30.40;100338.81;4957115;29;639;-58
2023/10/04 11:00:31;;;;;;;;;;;;;;;28.32;30.13;100337.88;4956677;29;935;-58
2023/10/04 11:03:00;;;;;;;;;;;;;;;28.32;30.12;100334.28;4956839;29;1878;-58
2023/10/04 11:05:27;;;;;;;;;;;;;;;28.34;30.05;100331.69;4939638;29;1266;-59
2023/10/04 11:07:55;;;;;;;;;;;;;;;28.43;29.91;100337.13;4956773;29;884;-58
2023/10/04 11:10:23;;;;;;;;;;;;;;;28.24;30.01;100331.91;4956731;29;841;-58
2023/10/04 11:16:17;;;;;;;;;;;;;;;28.71;29.29;100331.47;4953495;29;1265;-59
2023/10/04 11:18:45;;;;;;;;;;;;;;;29.00;29.06;100324.50;4937528;29;867;-58
2023/10/04 11:21:12;;;;;;;;;;;;;;;29.26;28.11;100315.69;4920289;29;915;-58
2023/10/04 11:23:39;;;;;;;;;;;;;;;29.31;28.15;100311.25;4937307;29;1980;-58
2023/10/04 11:26:08;;;;;;;;;;;;;;;29.40;27.87;100318.75;4937285;29;877;-58
2023/10/04 11:28:35;;;;;;;;;;;;;;;29.44;27.95;100314.31;4937524;29;849;-59
2023/10/04 11:31:02;;;;;;;;;;;;;;;29.22;27.89;100315.16;4937506;29;857;-58
2023/10/04 11:33:29;;;;;;;;;;;;;;;29.34;27.79;100307.38;4937242;29;956;-58
2023/10/04 11:35:57;;;;;;;;;;;;;;;29.51;27.41;100305.25;4937274;29;904;-58
2023/10/04 11:38:25;;;;;;;;;;;;;;;29.66;27.14;100304.13;4936853;29;975;-58
2023/10/04 11:40:52;;;;;;;;;;;;;;;29.86;26.88;100300.97;4937066;29;924;-58
2023/10/04 11:43:26;;;;;;;;;;;;;;;30.12;26.77;100309.13;4936826;29;1891;-58
2023/10/04 11:46:00;;;;;;;;;;;;;;;30.00;26.73;100304.00;4936054;29;1398;-59
2023/10/04 11:48:26;;;;;;;;;;;;;;;29.96;26.91;100297.81;4936816;29;1013;-59
2023/10/04 11:50:53;;;;;;;;;;;;;;;29.82;26.79;100305.41;4937025;29;901;-59
2023/10/04 11:53:30;;;;;;;;;;;;;;;29.97;26.70;100293.69;4935677;29;874;-58
2023/10/04 11:56:06;;;;;;;;;;;;;;;30.17;26.48;100301.84;4935582;29;1214;-58
2023/10/04 11:58:47;;;;;;;;;;;;;;;30.50;25.80;100294.38;4936936;29;896;-59
2023/10/04 12:01:22;;;;;;;;;;;;;;;30.58;25.77;100292.50;4936242;29;877;-59
2023/10/04 12:03:53;;;;;;;;;;;;;;;30.42;25.80;100291.31;4936848;29;1886;-58
2023/10/04 12:06:24;;;;;;;;;;;;;;;30.72;25.63;100285.63;4936708;29;853;-58
2023/10/04 12:08:50;;;;;;;;;;;;;;;31.12;25.19;100285.28;4936398;29;853;-59
2023/10/04 12:11:25;;;;;;;;;;;;;;;31.32;24.57;100279.09;4936459;29;825;-58
2023/10/04 12:13:52;;;;;;;;;;;;;;;31.02;24.59;100279.13;4936775;29;942;-59
2023/10/04 12:16:18;;;;;;;;;;;;;;;31.07;25.22;100277.56;4936868;29;1205;-59
2023/10/04 12:18:45;;;;;;;;;;;;;;;31.43;24.44;100278.22;4955367;29;876;-58
2023/10/04 12:21:12;;;;;;;;;;;;;;;31.24;24.33;100274.50;4938218;29;1349;-59
2023/10/04 12:23:39;;;;;;;;;;;;;;;31.08;24.89;100273.38;4955258;29;1946;-58
2023/10/04 12:26:06;;;;;;;;;;;;;;;30.90;24.80;100274.88;4955318;29;861;-58
2023/10/04 12:28:32;;;;;;;;;;;;;;;31.25;24.80;100273.97;4955160;29;898;-58
2023/10/04 12:31:02;;;;;;;;;;;;;;;31.60;24.51;100262.91;4955158;29;924;-58
2023/10/04 12:33:34;;;;;;;;;;;;;;;31.37;24.23;100257.47;4955248;29;832;-58
2023/10/04 12:36:01;;;;;;;;;;;;;;;31.21;24.54;100267.00;4955410;29;896;-58
2023/10/04 12:38:27;;;;;;;;;;;;;;;31.26;24.33;100261.25;4955283;29;880;-58
2023/10/04 12:40:54;;;;;;;;;;;;;;;31.67;24.30;100265.19;4955299;29;845;-58
2023/10/04 12:43:24;;;;;;;;;;;;;;;31.97;24.15;100262.16;4955055;29;1891;-58
2023/10/04 12:45:57;;;;;;;;;;;;;;;32.02;23.83;100254.84;4954980;29;813;-59
2023/10/04 12:48:23;;;;;;;;;;;;;;;31.86;23.95;100251.66;4954946;29;844;-58
2023/10/04 12:50:50;;;;;;;;;;;;;;;31.75;24.10;100246.13;4954853;29;860;-58
2023/10/04 12:53:16;;;;;;;;;;;;;;;31.85;23.86;100247.25;4955027;29;919;-58
2023/10/04 12:55:48;;;;;;;;;;;;;;;31.52;23.85;100246.41;4954699;29;830;-58
2023/10/04 12:58:15;;;;;;;;;;;;;;;31.88;23.62;100249.03;4954722;29;914;-59
2023/10/04 13:00:42;;;;;;;;;;;;;;;32.14;23.41;100250.50;4954778;29;849;-59
2023/10/04 13:03:08;;;;;;;;;;;;;;;32.08;23.34;100244.84;4954586;29;1949;-59
2023/10/04 13:05:41;;;;;;;;;;;;;;;32.32;23.21;100246.81;4954600;29;887;-59
2023/10/04 13:08:08;;;;;;;;;;;;;;;32.37;22.92;100245.19;4954547;29;963;-59
2023/10/04 13:10:36;;;;;;;;;;;;;;;32.13;23.26;100241.16;4954622;29;906;-58
2023/10/04 13:13:08;;;;;;;;;;;;;;;32.15;23.12;100240.59;4954076;28;920;-59
2023/10/04 13:15:35;;;;;;;;;;;;;;;32.20;23.38;100242.59;4954667;29;936;-58
2023/10/04 13:18:07;;;;;;;;;;;;;;;32.08;23.01;100239.16;4954372;29;1399;-58
2023/10/04 13:20:37;;;;;;;;;;;;;;;32.02;23.49;100235.59;4954313;28;1149;-58
2023/10/04 13:23:09;;;;;;;;;;;;;;;32.01;23.26;100230.44;4954210;29;1974;-58
2023/10/04 13:25:36;;;;;;;;;;;;;;;31.92;23.75;100237.28;4936976;29;797;-58
2023/10/04 13:28:01;;;;;;;;;;;;;;;31.80;24.00;100233.81;4954315;29;908;-58
2023/10/04 13:30:29;;;;;;;;;;;;;;;31.99;23.59;100225.25;4954198;29;857;-59
2023/10/04 13:32:56;;;;;;;;;;;;;;;31.87;23.70;100236.03;4954103;29;936;-58
2023/10/04 13:35:23;;;;;;;;;;;;;;;31.75;23.84;100231.81;4954254;29;846;-58
2023/10/04 13:37:52;;;;;;;;;;;;;;;31.89;23.90;100233.41;4954080;29;852;-58
2023/10/04 13:40:22;;;;;;;;;;;;;;;32.11;23.50;100231.56;4953980;29;871;-58
2023/10/04 13:42:52;;;;;;;;;;;;;;;32.06;23.30;100226.72;4953990;29;1947;-58
2023/10/04 13:45:19;;;;;;;;;;;;;;;31.95;23.54;100228.41;4954194;29;849;-56
2023/10/04 13:47:46;;;;;;;;;;;;;;;31.79;24.21;100229.41;4954108;29;900;-56
2023/10/04 13:50:13;;;;;;;;;;;;;;;31.69;24.02;100231.13;4954311;29;1189;-56